sensor_id;sensor_type;location;lat;lon;timestamp;temperature;humidity
47857;DHT22;33618;49.972;8.242;2022-07-18T00:08:06;23.10;52.60
47857;DHT22;33618;49.972;8.242;2022-07-18T00:10:33;23.10;52.60
47857;DHT22;33618;49.972;8.242;2022-07-18T00:31:49;23.20;52.60
47857;DHT22;33618;49.972;8.242;2022-07-18T00:46:27;23.00;52.60
47857;DHT22;33618;49.972;8.242;2022-07-18T00:49:19;22.90;52.50
47857;DHT22;33618;49.972;8.242;2022-07-18T00:52:09;22.80;52.40
47857;DHT22;33618;49.972;8.242;2022-07-18T00:55:00;22.90;52.40
47857;DHT22;33618;49.972;8.242;2022-07-18T00:57:52;22.80;52.40
47857;DHT22;33618;49.972;8.242;2022-07-18T01:00:44;22.70;52.50
47857;DHT22;33618;49.972;8.242;2022-07-18T01:03:53;22.70;52.40
47857;DHT22;33618;49.972;8.242;2022-07-18T01:11:23;22.80;52.70
47857;DHT22;33618;49.972;8.242;2022-07-18T01:13:55;22.80;52.80
47857;DHT22;33618;49.972;8.242;2022-07-18T01:31:06;22.80;52.80
47857;DHT22;33618;49.972;8.242;2022-07-18T01:33:57;22.80;52.90
47857;DHT22;33618;49.972;8.242;2022-07-18T01:36:49;22.70;52.70
47857;DHT22;33618;49.972;8.242;2022-07-18T01:43:08;22.60;52.60
47857;DHT22;33618;49.972;8.242;2022-07-18T01:45:58;22.70;52.50
47857;DHT22;33618;49.972;8.242;2022-07-18T01:48:25;22.60;52.40
47857;DHT22;33618;49.972;8.242;2022-07-18T01:50:52;22.60;52.50
47857;DHT22;33618;49.972;8.242;2022-07-18T02:02:39;22.50;52.50
47857;DHT22;33618;49.972;8.242;2022-07-18T02:05:06;22.30;52.30
47857;DHT22;33618;49.972;8.242;2022-07-18T02:07:34;22.20;52.90
47857;DHT22;33618;49.972;8.242;2022-07-18T02:10:25;22.30;52.50
47857;DHT22;33618;49.972;8.242;2022-07-18T03:07:27;19.50;60.10
47857;DHT22;33618;49.972;8.242;2022-07-18T03:09:54;19.10;61.20
47857;DHT22;33618;49.972;8.242;2022-07-18T03:12:21;19.10;60.20
47857;DHT22;33618;49.972;8.242;2022-07-18T03:33:44;18.50;62.10
47857;DHT22;33618;49.972;8.242;2022-07-18T03:41:05;18.20;62.20
47857;DHT22;33618;49.972;8.242;2022-07-18T03:43:56;18.10;62.70
47857;DHT22;33618;49.972;8.242;2022-07-18T03:46:46;18.00;63.20
47857;DHT22;33618;49.972;8.242;2022-07-18T03:49:37;17.90;63.00
47857;DHT22;33618;49.972;8.242;2022-07-18T03:52:28;18.00;63.40
47857;DHT22;33618;49.972;8.242;2022-07-18T03:55:19;17.90;63.50
47857;DHT22;33618;49.972;8.242;2022-07-18T03:58:14;17.80;63.00
47857;DHT22;33618;49.972;8.242;2022-07-18T04:08:23;17.60;62.90
47857;DHT22;33618;49.972;8.242;2022-07-18T04:10:50;17.60;63.30
47857;DHT22;33618;49.972;8.242;2022-07-18T04:20:51;17.60;63.40
47857;DHT22;33618;49.972;8.242;2022-07-18T04:23:19;17.70;63.40
47857;DHT22;33618;49.972;8.242;2022-07-18T04:25:46;17.60;63.30
47857;DHT22;33618;49.972;8.242;2022-07-18T04:28:13;17.70;63.30
47857;DHT22;33618;49.972;8.242;2022-07-18T04:30:40;17.70;63.20
47857;DHT22;33618;49.972;8.242;2022-07-18T04:33:10;17.70;63.70
47857;DHT22;33618;49.972;8.242;2022-07-18T04:42:23;17.80;63.90
47857;DHT22;33618;49.972;8.242;2022-07-18T04:48:31;17.90;63.20
47857;DHT22;33618;49.972;8.242;2022-07-18T04:50:58;17.80;64.20
47857;DHT22;33618;49.972;8.242;2022-07-18T05:01:01;18.10;63.50
47857;DHT22;33618;49.972;8.242;2022-07-18T05:03:28;18.00;64.10
47857;DHT22;33618;49.972;8.242;2022-07-18T05:05:54;18.00;63.80
47857;DHT22;33618;49.972;8.242;2022-07-18T05:08:21;18.10;63.70
47857;DHT22;33618;49.972;8.242;2022-07-18T05:23:03;18.20;64.60
47857;DHT22;33618;49.972;8.242;2022-07-18T05:25:30;18.20;64.60
47857;DHT22;33618;49.972;8.242;2022-07-18T05:39:21;18.60;63.40
47857;DHT22;33618;49.972;8.242;2022-07-18T05:41:48;18.80;63.50
47857;DHT22;33618;49.972;8.242;2022-07-18T05:47:56;18.80;63.60
47857;DHT22;33618;49.972;8.242;2022-07-18T05:50:23;18.80;63.50
47857;DHT22;33618;49.972;8.242;2022-07-18T06:50:00;21.00;58.30
47857;DHT22;33618;49.972;8.242;2022-07-18T06:52:27;21.10;57.80
47857;DHT22;33618;49.972;8.242;2022-07-18T07:13:47;21.80;55.60
47857;DHT22;33618;49.972;8.242;2022-07-18T07:16:37;21.90;55.30
47857;DHT22;33618;49.972;8.242;2022-07-18T07:19:29;21.90;55.10
47857;DHT22;33618;49.972;8.242;2022-07-18T07:22:19;22.00;55.00
47857;DHT22;33618;49.972;8.242;2022-07-18T07:25:09;22.10;54.70
47857;DHT22;33618;49.972;8.242;2022-07-18T07:28:01;22.20;55.50
47857;DHT22;33618;49.972;8.242;2022-07-18T07:30:53;22.30;54.60
47857;DHT22;33618;49.972;8.242;2022-07-18T07:33:44;22.30;54.60
47857;DHT22;33618;49.972;8.242;2022-07-18T08:00:10;23.30;52.00
47857;DHT22;33618;49.972;8.242;2022-07-18T08:02:49;23.40;52.10
47857;DHT22;33618;49.972;8.242;2022-07-18T08:20:17;23.90;51.40
47857;DHT22;33618;49.972;8.242;2022-07-18T08:23:08;24.10;50.80
47857;DHT22;33618;49.972;8.242;2022-07-18T08:26:03;24.20;50.90
47857;DHT22;33618;49.972;8.242;2022-07-18T08:28:54;24.30;51.50
47857;DHT22;33618;49.972;8.242;2022-07-18T08:31:48;24.40;50.10
47857;DHT22;33618;49.972;8.242;2022-07-18T08:34:39;24.50;50.20
47857;DHT22;33618;49.972;8.242;2022-07-18T08:37:33;24.60;50.60
47857;DHT22;33618;49.972;8.242;2022-07-18T10:12:21;28.40;45.00
47857;DHT22;33618;49.972;8.242;2022-07-18T10:59:26;30.10;43.10
47857;DHT22;33618;49.972;8.242;2022-07-18T11:02:18;30.30;43.90
47857;DHT22;33618;49.972;8.242;2022-07-18T11:08:18;30.40;42.80
47857;DHT22;33618;49.972;8.242;2022-07-18T13:40:09;36.40;41.40
47857;DHT22;33618;49.972;8.242;2022-07-18T13:42:43;36.50;39.70
47857;DHT22;33618;49.972;8.242;2022-07-18T13:45:10;36.70;40.10
47857;DHT22;33618;49.972;8.242;2022-07-18T13:47:40;36.80;40.50
47857;DHT22;33618;49.972;8.242;2022-07-18T13:50:13;36.70;40.40
47857;DHT22;33618;49.972;8.242;2022-07-18T13:52:40;36.40;39.20
47857;DHT22;33618;49.972;8.242;2022-07-18T13:55:07;36.20;39.50
47857;DHT22;33618;49.972;8.242;2022-07-18T13:57:34;36.20;40.10
47857;DHT22;33618;49.972;8.242;2022-07-18T14:00:07;36.30;40.20
47857;DHT22;33618;49.972;8.242;2022-07-18T14:02:35;36.50;40.50
47857;DHT22;33618;49.972;8.242;2022-07-18T14:24:30;38.00;40.50
47857;DHT22;33618;49.972;8.242;2022-07-18T14:27:21;37.80;40.30
47857;DHT22;33618;49.972;8.242;2022-07-18T14:30:13;37.70;40.70
47857;DHT22;33618;49.972;8.242;2022-07-18T14:33:04;37.60;39.50
47857;DHT22;33618;49.972;8.242;2022-07-18T14:35:55;37.90;39.80
47857;DHT22;33618;49.972;8.242;2022-07-18T14:58:28;39.10;39.60
47857;DHT22;33618;49.972;8.242;2022-07-18T15:00:55;39.50;39.60
47857;DHT22;33618;49.972;8.242;2022-07-18T15:22:18;38.40;38.20
47857;DHT22;33618;49.972;8.242;2022-07-18T15:37:27;39.50;39.30
47857;DHT22;33618;49.972;8.242;2022-07-18T15:39:57;39.70;39.00
47857;DHT22;33618;49.972;8.242;2022-07-18T15:42:24;39.50;38.30
47857;DHT22;33618;49.972;8.242;2022-07-18T17:29:56;40.40;39.80
47857;DHT22;33618;49.972;8.242;2022-07-18T17:32:24;40.30;39.50
47857;DHT22;33618;49.972;8.242;2022-07-18T17:34:51;40.20;39.50
47857;DHT22;33618;49.972;8.242;2022-07-18T17:37:19;40.00;39.60
47857;DHT22;33618;49.972;8.242;2022-07-18T17:39:47;39.80;39.50
47857;DHT22;33618;49.972;8.242;2022-07-18T17:42:16;39.40;39.70
47857;DHT22;33618;49.972;8.242;2022-07-18T17:44:43;39.30;39.70
47857;DHT22;33618;49.972;8.242;2022-07-18T17:47:10;39.00;40.20
47857;DHT22;33618;49.972;8.242;2022-07-18T17:49:37;39.10;39.90
47857;DHT22;33618;49.972;8.242;2022-07-18T18:15:34;38.10;40.20
47857;DHT22;33618;49.972;8.242;2022-07-18T18:18:01;38.00;40.70
47857;DHT22;33618;49.972;8.242;2022-07-18T18:20:29;37.60;40.20
47857;DHT22;33618;49.972;8.242;2022-07-18T18:22:55;37.20;40.40
47857;DHT22;33618;49.972;8.242;2022-07-18T18:25:22;37.10;41.10
47857;DHT22;33618;49.972;8.242;2022-07-18T18:27:49;37.00;40.70
47857;DHT22;33618;49.972;8.242;2022-07-18T18:30:17;36.90;40.50
47857;DHT22;33618;49.972;8.242;2022-07-18T18:32:43;36.90;40.40
47857;DHT22;33618;49.972;8.242;2022-07-18T18:35:10;36.80;40.70
47857;DHT22;33618;49.972;8.242;2022-07-18T18:37:38;36.60;41.20
47857;DHT22;33618;49.972;8.242;2022-07-18T18:59:44;35.20;41.80
47857;DHT22;33618;49.972;8.242;2022-07-18T19:02:11;34.80;41.80
47857;DHT22;33618;49.972;8.242;2022-07-18T19:04:38;34.40;42.90
47857;DHT22;33618;49.972;8.242;2022-07-18T19:07:05;34.20;42.60
47857;DHT22;33618;49.972;8.242;2022-07-18T19:09:32;34.00;43.00
47857;DHT22;33618;49.972;8.242;2022-07-18T19:11:59;33.70;43.10
47857;DHT22;33618;49.972;8.242;2022-07-18T19:14:26;33.60;43.40
47857;DHT22;33618;49.972;8.242;2022-07-18T19:16:53;33.30;43.60
47857;DHT22;33618;49.972;8.242;2022-07-18T19:19:20;33.00;43.60
47857;DHT22;33618;49.972;8.242;2022-07-18T19:41:26;31.10;45.50
47857;DHT22;33618;49.972;8.242;2022-07-18T19:43:53;30.80;45.20
47857;DHT22;33618;49.972;8.242;2022-07-18T19:46:20;30.50;45.20
47857;DHT22;33618;49.972;8.242;2022-07-18T19:48:47;30.40;45.90
47857;DHT22;33618;49.972;8.242;2022-07-18T19:51:15;30.30;45.80
47857;DHT22;33618;49.972;8.242;2022-07-18T19:53:42;30.20;47.50
47857;DHT22;33618;49.972;8.242;2022-07-18T19:56:09;30.00;48.10
47857;DHT22;33618;49.972;8.242;2022-07-18T19:58:36;29.90;47.80
47857;DHT22;33618;49.972;8.242;2022-07-18T20:01:03;29.70;48.20
47857;DHT22;33618;49.972;8.242;2022-07-18T20:18:48;29.10;48.90
47857;DHT22;33618;49.972;8.242;2022-07-18T20:21:15;28.80;48.50
47857;DHT22;33618;49.972;8.242;2022-07-18T20:35:11;28.70;48.70
47857;DHT22;33618;49.972;8.242;2022-07-18T20:38:05;28.60;48.90
47857;DHT22;33618;49.972;8.242;2022-07-18T20:40:57;28.20;48.90
47857;DHT22;33618;49.972;8.242;2022-07-18T20:43:47;28.10;49.50
47857;DHT22;33618;49.972;8.242;2022-07-18T20:46:39;27.90;49.20
47857;DHT22;33618;49.972;8.242;2022-07-18T20:49:32;27.60;48.00
47857;DHT22;33618;49.972;8.242;2022-07-18T20:52:27;27.50;48.90
47857;DHT22;33618;49.972;8.242;2022-07-18T20:55:24;27.30;49.50
47857;DHT22;33618;49.972;8.242;2022-07-18T21:22:07;26.90;50.70
47857;DHT22;33618;49.972;8.242;2022-07-18T21:24:36;26.70;51.20
47857;DHT22;33618;49.972;8.242;2022-07-18T21:42:08;26.50;52.10
47857;DHT22;33618;49.972;8.242;2022-07-18T21:44:36;26.30;51.80
47857;DHT22;33618;49.972;8.242;2022-07-18T21:49:57;26.10;51.60
47857;DHT22;33618;49.972;8.242;2022-07-18T21:52:48;26.10;51.50
47857;DHT22;33618;49.972;8.242;2022-07-18T21:55:15;26.10;51.10
47857;DHT22;33618;49.972;8.242;2022-07-18T21:57:47;26.00;51.10
47857;DHT22;33618;49.972;8.242;2022-07-18T22:14:46;25.80;52.30
47857;DHT22;33618;49.972;8.242;2022-07-18T22:20:33;25.50;52.80
47857;DHT22;33618;49.972;8.242;2022-07-18T22:23:26;25.40;52.60
47857;DHT22;33618;49.972;8.242;2022-07-18T22:25:55;25.20;52.80
47857;DHT22;33618;49.972;8.242;2022-07-18T22:28:24;25.50;52.90
47857;DHT22;33618;49.972;8.242;2022-07-18T22:30:51;25.30;53.20
47857;DHT22;33618;49.972;8.242;2022-07-18T22:33:18;25.30;53.50
47857;DHT22;33618;49.972;8.242;2022-07-18T22:35:52;25.20;54.00
47857;DHT22;33618;49.972;8.242;2022-07-18T22:49:25;24.80;54.70
47857;DHT22;33618;49.972;8.242;2022-07-18T22:52:21;24.70;55.10
47857;DHT22;33618;49.972;8.242;2022-07-18T22:55:13;24.80;55.10
47857;DHT22;33618;49.972;8.242;2022-07-18T22:58:06;24.90;54.20
47857;DHT22;33618;49.972;8.242;2022-07-18T23:01:04;25.10;53.80
47857;DHT22;33618;49.972;8.242;2022-07-18T23:03:55;25.10;53.70
47857;DHT22;33618;49.972;8.242;2022-07-18T23:06:49;25.10;52.80
